Time;durP1;ratioP1;P1;durP2;ratioP2;P2;SDS_P1;SDS_P2;PMS_P1;PMS_P2;Temp;Humidity;BMP_temperature;BMP_pressure;BME280_temperature;BME280_humidity;BME280_pressure;Samples;Min_cycle;Max_cycle;Signal;HPM_P1;HPM_P2
2021/12/17 00:00:58;;;;;;;5.40;2.28;;;;;;;7.03;54.96;103927.00;4989775;28;19947;-67
2021/12/17 00:03:36;;;;;;;6.70;2.13;;;;;;;7.03;54.47;103932.22;4983992;28;20598;-67
2021/12/17 00:08:37;;;;;;;4.28;1.55;;;;;;;7.00;54.65;103940.81;4985333;28;20046;-67
2021/12/17 00:11:05;;;;;;;4.13;2.28;;;;;;;6.94;55.19;103935.47;4992007;28;20045;-67
2021/12/17 00:13:31;;;;;;;6.10;2.80;;;;;;;6.93;54.99;103948.41;4970992;28;20034;-67
2021/12/17 00:15:57;;;;;;;5.47;1.70;;;;;;;6.85;54.97;103946.53;4965438;28;20104;-66
2021/12/17 00:18:42;;;;;;;3.08;1.77;;;;;;;6.95;55.05;103949.34;4985376;28;20531;-66
2021/12/17 00:48:37;;;;;;;2.35;0.70;;;;;;;7.31;54.43;103945.03;4984304;28;20410;-67
2021/12/17 00:53:51;;;;;;;5.32;1.52;;;;;;;7.29;53.91;103931.09;4987695;28;20108;-66
2021/12/17 00:56:18;;;;;;;3.10;0.90;;;;;;;7.30;54.11;103930.22;4972476;28;20034;-66
2021/12/17 00:58:43;;;;;;;3.45;1.10;;;;;;;7.33;53.79;103932.03;4987501;28;20039;-65
2021/12/17 01:01:10;;;;;;;2.67;1.00;;;;;;;7.24;54.06;103927.47;4978762;28;20042;-67
2021/12/17 01:03:36;;;;;;;6.60;1.10;;;;;;;7.31;54.54;103921.59;4972003;28;20053;-65
2021/12/17 01:06:02;;;;;;;5.30;1.13;;;;;;;7.30;54.06;103919.81;4974110;28;20029;-67
2021/12/17 01:08:30;;;;;;;2.17;0.63;;;;;;;7.37;54.37;103919.97;4985810;28;20377;-64
2021/12/17 01:10:57;;;;;;;2.25;0.65;;;;;;;7.38;54.29;103922.63;4979601;28;20036;-65
2021/12/17 01:13:45;;;;;;;3.35;0.75;;;;;;;7.40;54.04;103917.41;4974910;28;20686;-66
2021/12/17 01:16:38;;;;;;;5.05;1.35;;;;;;;7.26;54.36;103917.13;4975914;28;20042;-64
2021/12/17 01:22:44;;;;;;;2.90;0.40;;;;;;;7.40;54.04;103925.22;4973242;28;20030;-64
2021/12/17 01:35:20;;;;;;;3.78;1.40;;;;;;;7.30;53.69;103921.56;4957453;28;20038;-63
2021/12/17 01:41:08;;;;;;;5.82;1.17;;;;;;;7.44;54.15;103940.06;4985242;28;20022;-63
2021/12/17 01:43:14;;;;;;;2.20;0.82;;;;;;;7.44;54.01;103933.13;4969432;28;20463;-64
2021/12/17 01:45:42;;;;;;;1.90;0.52;;;;;;;7.51;53.83;103934.16;4972912;28;20115;-65
2021/12/17 01:48:14;;;;;;;5.68;0.93;;;;;;;7.46;54.17;103935.78;4977604;28;20072;-64
2021/12/17 01:56:30;;;;;;;6.80;1.15;;;;;;;7.34;53.99;103941.59;4986400;28;20505;-65
2021/12/17 02:01:41;;;;;;;4.53;1.20;;;;;;;7.38;54.17;103940.84;4975775;28;20069;-64
2021/12/17 02:04:07;;;;;;;4.53;1.17;;;;;;;7.38;54.34;103945.13;4988417;28;20573;-64
2021/12/17 02:06:36;;;;;;;4.53;0.95;;;;;;;7.44;54.25;103940.94;4971629;28;20109;-64
2021/12/17 02:09:16;;;;;;;2.33;0.73;;;;;;;7.42;54.24;103947.88;4987223;28;20057;-65
2021/12/17 02:20:13;;;;;;;4.90;1.17;;;;;;;7.44;54.13;103933.13;4953554;28;20042;-64
2021/12/17 02:30:58;;;;;;;7.72;1.42;;;;;;;7.30;54.26;103924.16;4986360;28;20508;-64
2021/12/17 02:33:24;;;;;;;4.50;0.98;;;;;;;7.08;54.75;103912.38;4969462;28;20080;-63
2021/12/17 02:35:50;;;;;;;11.98;2.08;;;;;;;7.26;54.63;103912.78;4969138;28;20104;-64
2021/12/17 02:38:16;;;;;;;4.13;1.60;;;;;;;7.27;54.43;103909.38;4978586;28;20030;-64
2021/12/17 02:47:09;;;;;;;4.75;1.25;;;;;;;7.31;54.72;103905.09;4968536;28;20124;-65
2021/12/17 02:49:37;;;;;;;3.88;1.20;;;;;;;7.32;54.43;103901.66;4963185;28;20535;-64
2021/12/17 02:52:04;;;;;;;6.22;1.85;;;;;;;7.31;54.49;103900.78;4984649;28;20080;-65
2021/12/17 02:54:31;;;;;;;4.65;1.65;;;;;;;7.38;54.43;103895.69;4985042;28;20128;-65
2021/12/17 02:56:57;;;;;;;4.18;1.50;;;;;;;7.33;54.63;103904.31;4961150;28;20118;-65
2021/12/17 02:59:23;;;;;;;4.60;1.67;;;;;;;7.36;54.45;103900.88;4988607;28;20031;-66
2021/12/17 03:01:49;;;;;;;7.13;2.00;;;;;;;7.33;54.52;103904.31;4984719;28;20049;-63
2021/12/17 03:04:17;;;;;;;5.38;1.90;;;;;;;7.40;54.39;103899.22;4976499;28;20499;-65
2021/12/17 03:06:44;;;;;;;2.72;1.25;;;;;;;7.40;54.33;103894.91;4984108;28;20038;-63
2021/12/17 03:09:10;;;;;;;5.78;2.25;;;;;;;7.40;54.34;103886.19;4986458;28;20296;-64
2021/12/17 03:11:36;;;;;;;5.28;1.95;;;;;;;7.36;54.66;103897.41;4969850;28;20033;-65
2021/12/17 03:14:01;;;;;;;4.10;2.15;;;;;;;7.33;54.57;103893.91;4977232;28;20515;-64
2021/12/17 03:16:36;;;;;;;8.18;2.83;;;;;;;7.40;54.87;103904.41;4973563;28;20049;-65
2021/12/17 03:19:28;;;;;;;7.70;2.20;;;;;;;7.52;54.24;103895.16;4986953;28;20042;-65
2021/12/17 03:24:33;;;;;;;7.47;2.38;;;;;;;7.48;54.34;103893.31;4971250;28;20038;-66
2021/12/17 03:26:59;;;;;;;8.18;2.53;;;;;;;7.38;54.55;103885.28;4970103;28;20042;-66
2021/12/17 03:29:24;;;;;;;8.73;2.72;;;;;;;7.45;54.54;103892.41;4984494;28;20418;-66
2021/12/17 03:31:55;;;;;;;8.80;2.53;;;;;;;7.46;54.34;103894.16;4957885;28;20045;-69
2021/12/17 03:34:21;;;;;;;8.80;3.17;;;;;;;7.52;54.29;103886.47;4976253;28;20065;-66
2021/12/17 03:36:54;;;;;;;4.72;2.33;;;;;;;7.57;54.47;103881.41;4968806;28;20050;-65
2021/12/17 03:39:23;;;;;;;8.48;2.97;;;;;;;7.41;54.67;103887.97;4971501;28;20038;-65
2021/12/17 03:41:51;;;;;;;9.55;2.95;;;;;;;7.36;54.85;103889.59;4975104;28;20100;-65
2021/12/17 03:44:22;;;;;;;11.38;3.85;;;;;;;7.40;54.90;103894.00;4971095;28;20537;-65
2021/12/17 03:47:17;;;;;;;11.38;3.83;;;;;;;7.48;54.84;103895.06;4981871;28;20045;-65
2021/12/17 03:49:58;;;;;;;7.80;3.17;;;;;;;7.45;54.83;103898.47;4961262;28;20041;-65
2021/12/17 03:52:25;;;;;;;12.65;3.67;;;;;;;7.47;54.78;103906.31;4975747;28;20042;-65
2021/12/17 03:54:50;;;;;;;7.65;2.80;;;;;;;7.55;54.53;103909.97;4977591;28;20049;-65
2021/12/17 03:57:18;;;;;;;7.90;2.45;;;;;;;7.59;54.45;103905.72;4973882;28;20056;-66
2021/12/17 03:59:47;;;;;;;6.70;2.60;;;;;;;7.58;54.46;103907.47;4974762;28;20046;-67
2021/12/17 04:02:16;;;;;;;6.35;2.00;;;;;;;7.61;54.58;103904.91;4976361;28;20034;-68
2021/12/17 04:04:42;;;;;;;7.43;3.13;;;;;;;7.54;54.37;103900.41;4990752;28;20030;-68
2021/12/17 04:07:28;;;;;;;10.93;3.72;;;;;;;7.58;54.31;103910.06;4979612;28;20046;-68
2021/12/17 04:10:09;;;;;;;8.70;2.75;;;;;;;7.63;54.23;103915.38;4989148;28;20443;-67
2021/12/17 04:12:51;;;;;;;9.73;3.47;;;;;;;7.63;54.36;103903.22;4979237;28;20049;-67
2021/12/17 04:15:17;;;;;;;6.63;3.25;;;;;;;7.49;54.45;103905.50;4973317;28;20030;-66
2021/12/17 04:17:47;;;;;;;7.22;2.67;;;;;;;7.55;54.75;103912.59;4980557;28;20533;-67
2021/12/17 04:20:13;;;;;;;8.20;2.92;;;;;;;7.62;54.42;103901.44;4977077;28;20058;-68
2021/12/17 04:22:42;;;;;;;11.13;2.90;;;;;;;7.58;54.75;103897.06;4979008;28;20570;-69
2021/12/17 04:25:10;;;;;;;7.88;2.50;;;;;;;7.65;54.41;103903.28;4958289;28;20026;-68
2021/12/17 04:27:36;;;;;;;6.03;3.00;;;;;;;7.57;54.66;103897.88;4957706;28;20108;-68
2021/12/17 04:30:03;;;;;;;6.90;2.70;;;;;;;7.56;54.65;103911.75;4974490;28;20025;-69
2021/12/17 04:32:29;;;;;;;9.65;3.35;;;;;;;7.57;54.62;103918.72;4973018;28;20456;-66
2021/12/17 04:34:54;;;;;;;6.65;3.03;;;;;;;7.41;54.88;103904.47;4972657;28;20145;-70
2021/12/17 04:37:26;;;;;;;12.88;3.47;;;;;;;7.46;55.04;103901.94;4969844;28;20145;-72
2021/12/17 04:39:57;;;;;;;5.60;2.45;;;;;;;7.35;55.28;103899.09;4980674;28;20030;-67
2021/12/17 04:42:36;;;;;;;9.50;2.72;;;;;;;7.44;55.11;103901.03;4977636;28;20034;-68
2021/12/17 04:45:04;;;;;;;5.95;1.83;;;;;;;7.41;55.12;103890.56;4980179;28;20041;-67
2021/12/17 04:58:32;;;;;;;6.30;1.50;;;;;;;7.52;54.93;103896.88;4970216;28;20046;-69
2021/12/17 05:01:01;;;;;;;5.38;1.40;;;;;;;7.27;55.28;103883.34;4979816;28;20069;-69
2021/12/17 05:03:27;;;;;;;4.78;1.80;;;;;;;7.36;55.25;103892.22;4969061;28;20574;-65
2021/12/17 05:05:53;;;;;;;5.20;2.47;;;;;;;7.37;55.09;103893.94;4977039;28;20030;-69
2021/12/17 05:08:26;;;;;;;5.65;1.52;;;;;;;7.11;55.36;103895.13;4985134;28;20121;-69
2021/12/17 05:19:36;;;;;;;5.75;1.65;;;;;;;7.19;55.02;103902.22;4972522;28;20089;-67
2021/12/17 05:22:05;;;;;;;5.25;2.22;;;;;;;7.33;54.63;103898.19;4977532;28;20057;-67
2021/12/17 05:24:32;;;;;;;5.78;1.75;;;;;;;7.37;54.48;103919.97;4979347;28;20668;-68
2021/12/17 05:26:57;;;;;;;5.03;1.98;;;;;;;7.13;54.66;103910.75;4987644;28;20049;-67
2021/12/17 05:29:24;;;;;;;4.95;2.22;;;;;;;7.01;55.20;103913.09;4979235;28;20083;-66
2021/12/17 05:31:49;;;;;;;2.28;0.65;;;;;;;6.94;55.17;103921.59;4963723;28;20038;-65
2021/12/17 05:34:15;;;;;;;2.50;0.60;;;;;;;7.35;53.75;103919.06;4970799;28;20386;-67
2021/12/17 05:36:53;;;;;;;2.17;0.70;;;;;;;7.17;54.17;103922.13;4967683;28;20229;-66
2021/12/17 05:39:23;;;;;;;4.20;1.33;;;;;;;7.24;54.01;103918.81;4973270;28;20275;-65
2021/12/17 05:41:48;;;;;;;6.72;1.33;;;;;;;7.17;54.10;103932.53;4972329;28;20041;-66
2021/12/17 05:44:37;;;;;;;2.58;1.25;;;;;;;7.15;54.25;103929.00;4982443;28;20046;-66
2021/12/17 05:47:04;;;;;;;5.10;1.30;;;;;;;7.28;53.91;103908.50;4974697;28;20471;-67
2021/12/17 05:49:31;;;;;;;6.15;1.33;;;;;;;7.41;53.54;103916.59;4988995;28;20046;-66
2021/12/17 05:52:00;;;;;;;5.00;1.60;;;;;;;7.36;53.54;103933.84;4958273;28;20041;-65
2021/12/17 05:54:27;;;;;;;2.08;1.40;;;;;;;7.69;52.80;103937.22;4960684;28;20046;-66
2021/12/17 05:56:54;;;;;;;1.92;1.10;;;;;;;7.31;53.91;103934.63;4943498;28;20585;-66
2021/12/17 05:59:21;;;;;;;3.92;1.55;;;;;;;7.44;53.70;103924.47;4974118;28;20364;-66
2021/12/17 06:01:47;;;;;;;2.88;1.88;;;;;;;7.56;53.33;103922.16;4957178;28;20042;-67
2021/12/17 06:04:13;;;;;;;1.98;0.98;;;;;;;7.52;52.99;103936.78;4978689;28;20186;-67
2021/12/17 06:07:05;;;;;;;3.50;1.80;;;;;;;7.50;53.52;103932.41;4983481;28;20042;-70
2021/12/17 06:09:32;;;;;;;3.28;1.60;;;;;;;7.78;52.49;103933.00;4986160;28;20478;-65
2021/12/17 06:11:59;;;;;;;3.97;3.00;;;;;;;7.72;53.01;103932.06;4977573;28;20540;-67
2021/12/17 06:14:25;;;;;;;3.60;1.33;;;;;;;7.68;53.07;103943.25;4974553;28;20149;-66
2021/12/17 06:16:50;;;;;;;7.97;2.67;;;;;;;7.62;53.17;103942.22;4984267;28;20338;-66
2021/12/17 06:19:27;;;;;;;3.40;1.67;;;;;;;7.77;52.84;103936.47;4972560;28;20041;-65
2021/12/17 06:21:53;;;;;;;3.03;1.35;;;;;;;7.85;52.40;103941.00;4971522;28;20576;-64
2021/12/17 06:24:18;;;;;;;5.55;2.53;;;;;;;7.90;52.46;103946.31;4972283;28;20117;-64
2021/12/17 06:26:44;;;;;;;3.58;1.63;;;;;;;7.86;52.52;103941.88;4971537;28;20042;-67
2021/12/17 06:29:10;;;;;;;3.20;2.28;;;;;;;7.79;52.53;103942.59;4957054;28;20089;-67
2021/12/17 06:31:35;;;;;;;5.72;2.75;;;;;;;7.80;52.69;103944.34;4972093;28;20148;-68
2021/12/17 06:34:01;;;;;;;4.18;1.50;;;;;;;7.73;53.04;103932.91;4977172;28;20030;-67
2021/12/17 06:36:28;;;;;;;3.05;1.85;;;;;;;7.86;52.54;103934.06;4977485;28;20817;-68
2021/12/17 06:38:54;;;;;;;3.40;1.65;;;;;;;7.83;52.76;103931.41;4986017;28;20030;-68
2021/12/17 06:41:22;;;;;;;4.20;3.10;;;;;;;7.66;53.09;103934.50;4976830;28;20497;-68
2021/12/17 06:43:48;;;;;;;3.75;1.83;;;;;;;7.74;52.91;103942.50;4971953;28;20037;-67
2021/12/17 06:48:42;;;;;;;8.13;2.67;;;;;;;7.77;53.23;103932.16;4975641;28;20511;-64
2021/12/17 06:58:08;;;;;;;4.38;2.03;;;;;;;7.73;53.08;103948.53;4986446;28;20046;-66
2021/12/17 07:00:15;;;;;;;7.18;2.38;;;;;;;7.56;53.86;103948.19;4982557;28;20100;-66
2021/12/17 07:09:22;;;;;;;7.72;2.38;;;;;;;7.69;53.17;103955.44;4982041;28;20647;-68
2021/12/17 07:17:08;;;;;;;4.82;1.90;;;;;;;7.74;53.26;103952.91;4977228;28;20035;-69
2021/12/17 07:17:25;;;;;;;4.55;1.95;;;;;;;7.53;53.91;103958.50;4985154;28;20064;-66
2021/12/17 07:22:48;;;;;;;4.35;2.15;;;;;;;7.55;53.83;103949.03;4971376;28;20131;-65
2021/12/17 07:28:09;;;;;;;3.30;1.83;;;;;;;7.58;53.97;103959.53;4976119;28;20658;-68
2021/12/17 07:33:41;;;;;;;4.20;1.95;;;;;;;7.69;53.49;103958.03;4971715;28;20038;-70
2021/12/17 07:38:35;;;;;;;8.10;2.40;;;;;;;7.70;53.66;103959.78;4974395;28;20097;-65
2021/12/17 07:39:34;;;;;;;7.43;2.28;;;;;;;7.75;53.38;103959.88;4981809;28;20750;-67
2021/12/17 07:42:06;;;;;;;7.00;2.83;;;;;;;7.79;53.29;103958.22;4974756;28;20050;-65
2021/12/17 07:44:37;;;;;;;7.07;2.63;;;;;;;7.73;53.18;103954.66;4990330;28;20626;-64
2021/12/17 07:47:27;;;;;;;6.53;2.47;;;;;;;7.64;53.36;103950.97;4991558;28;20038;-65
2021/12/17 07:50:12;;;;;;;4.30;2.15;;;;;;;7.74;53.24;103955.53;4992309;28;20049;-66
2021/12/17 07:52:56;;;;;;;3.25;1.40;;;;;;;7.60;53.50;103951.72;4987776;28;20076;-66
2021/12/17 07:55:21;;;;;;;3.30;1.80;;;;;;;7.72;53.48;103950.28;4975395;28;20061;-66
2021/12/17 07:57:47;;;;;;;9.20;2.75;;;;;;;7.70;53.31;103945.88;4976272;28;20038;-66
2021/12/17 08:00:17;;;;;;;4.95;1.73;;;;;;;7.72;53.27;103958.09;4973047;28;20085;-64
2021/12/17 08:02:43;;;;;;;10.23;2.28;;;;;;;7.74;53.50;103951.19;4987928;28;20473;-65
2021/12/17 08:05:38;;;;;;;6.65;2.35;;;;;;;7.74;53.25;103953.78;4987658;28;20078;-65
2021/12/17 08:08:03;;;;;;;6.38;1.52;;;;;;;7.86;52.91;103962.72;4965460;22;20045;-71
2021/12/17 08:10:31;;;;;;;4.88;1.85;;;;;;;7.81;52.71;103959.13;4953242;28;20035;-70
2021/12/17 08:12:57;;;;;;;4.10;2.25;;;;;;;7.80;53.34;103959.97;4953451;28;20046;-71
2021/12/17 08:15:30;;;;;;;6.43;1.70;;;;;;;7.91;52.89;103967.19;4964477;28;20026;-70
2021/12/17 08:28:38;;;;;;;5.45;1.95;;;;;;;8.13;52.67;103964.97;4964171;28;20053;-71
2021/12/17 08:31:04;;;;;;;4.85;2.60;;;;;;;8.08;52.41;103964.91;4966315;28;20121;-71
2021/12/17 08:33:30;;;;;;;5.95;2.70;;;;;;;8.12;52.70;103981.47;4962826;28;20481;-70
2021/12/17 08:35:57;;;;;;;4.35;1.92;;;;;;;8.24;52.62;103980.84;4967331;28;20042;-71
2021/12/17 08:38:32;;;;;;;4.07;1.40;;;;;;;8.36;51.91;103978.47;4977205;28;20397;-71
2021/12/17 08:41:02;;;;;;;6.43;2.17;;;;;;;8.29;51.94;103973.97;4968537;28;20045;-71
2021/12/17 08:43:30;;;;;;;5.50;2.10;;;;;;;8.29;52.16;103976.59;4950346;28;20050;-70
2021/12/17 08:45:56;;;;;;;6.57;2.33;;;;;;;8.33;52.15;103984.47;4965923;28;20046;-70
2021/12/17 08:48:22;;;;;;;8.25;2.35;;;;;;;8.45;51.96;103981.25;4966181;28;20125;-71
2021/12/17 08:51:23;;;;;;;8.63;2.97;;;;;;;8.53;51.53;103974.44;4947899;28;20045;-71
2021/12/17 08:53:49;;;;;;;6.90;2.78;;;;;;;8.50;51.76;103974.38;4979950;28;20066;-71
2021/12/17 08:56:20;;;;;;;7.07;2.13;;;;;;;8.51;51.31;103985.69;4965173;28;20027;-70
2021/12/17 08:58:49;;;;;;;4.15;1.85;;;;;;;8.52;51.75;103988.34;4945992;28;20477;-71
2021/12/17 09:01:15;;;;;;;5.03;1.63;;;;;;;8.47;51.80;103987.38;4960730;28;20093;-69
2021/12/17 09:03:41;;;;;;;8.30;1.70;;;;;;;8.31;51.76;103999.22;4945796;28;20043;-69
2021/12/17 09:06:27;;;;;;;3.38;1.90;;;;;;;8.31;51.97;104000.94;4966574;28;20054;-71
2021/12/17 09:08:56;;;;;;;4.57;1.60;;;;;;;8.33;51.53;103999.25;4967396;28;20062;-69
2021/12/17 09:11:24;;;;;;;1.73;1.15;;;;;;;8.32;51.66;104005.31;4945817;28;20067;-69
2021/12/17 09:13:56;;;;;;;6.45;1.73;;;;;;;8.30;51.91;104004.41;4964072;28;20034;-71
2021/12/17 09:16:24;;;;;;;2.58;1.38;;;;;;;8.22;51.92;104003.38;4977527;28;20097;-69
2021/12/17 09:18:53;;;;;;;5.43;1.42;;;;;;;8.16;52.61;103991.13;4963262;28;20034;-69
2021/12/17 09:21:26;;;;;;;6.18;1.60;;;;;;;8.04;52.79;103991.72;4961599;28;20691;-71
2021/12/17 09:23:59;;;;;;;5.57;1.95;;;;;;;7.86;53.82;103988.75;4960569;28;20034;-68
2021/12/17 09:26:29;;;;;;;4.68;1.35;;;;;;;7.71;53.97;103989.28;4947690;28;20587;-70
2021/12/17 09:28:54;;;;;;;8.27;1.73;;;;;;;8.01;53.86;103989.06;4978157;28;20027;-70
2021/12/17 09:31:20;;;;;;;3.83;2.13;;;;;;;7.92;54.22;103986.28;4961556;28;20101;-69
2021/12/17 09:33:49;;;;;;;3.08;0.98;;;;;;;7.88;54.11;103987.06;4943429;28;20049;-68
2021/12/17 09:36:16;;;;;;;2.92;1.30;;;;;;;8.17;53.83;103978.97;4962509;28;20033;-70
2021/12/17 09:38:41;;;;;;;3.72;1.17;;;;;;;8.23;53.39;103990.38;4961204;28;20078;-69
2021/12/17 09:41:07;;;;;;;3.55;1.83;;;;;;;8.18;54.01;103991.13;4964996;28;20855;-71
2021/12/17 09:43:36;;;;;;;3.95;0.90;;;;;;;8.32;53.69;103994.91;4945544;28;20039;-71
2021/12/17 09:46:05;;;;;;;4.32;0.70;;;;;;;8.10;54.49;103998.81;4978443;28;20034;-70
2021/12/17 09:48:32;;;;;;;3.30;0.40;;;;;;;8.11;54.37;103991.03;4975569;28;20054;-71
2021/12/17 09:50:58;;;;;;;3.20;0.98;;;;;;;8.26;53.83;103979.13;4964373;28;20600;-70
2021/12/17 09:53:24;;;;;;;1.00;0.40;;;;;;;8.07;54.62;103976.19;4960898;28;20138;-71
2021/12/17 09:55:50;;;;;;;0.95;0.65;;;;;;;8.30;54.35;103980.97;4947601;28;20101;-71
2021/12/17 09:58:16;;;;;;;1.92;0.20;;;;;;;8.28;54.10;103987.88;4980122;28;20111;-71
2021/12/17 10:00:42;;;;;;;2.92;0.25;;;;;;;8.19;54.40;103987.69;4962980;28;20540;-70
2021/12/17 10:03:08;;;;;;;0.80;0.40;;;;;;;8.41;54.05;103989.84;4958030;28;20146;-71
2021/12/17 10:05:36;;;;;;;3.25;0.30;;;;;;;8.12;54.99;103997.13;4964699;28;20070;-71
2021/12/17 10:08:14;;;;;;;0.93;0.10;;;;;;;8.27;54.21;103997.41;4970078;28;20519;-71
2021/12/17 10:10:47;;;;;;;3.00;0.20;;;;;;;8.45;53.83;103993.38;4983044;28;20034;-73
2021/12/17 10:13:20;;;;;;;0.98;0.20;;;;;;;8.11;54.78;103998.84;4961736;28;20170;-71
2021/12/17 10:15:49;;;;;;;1.02;0.20;;;;;;;8.56;53.96;103997.97;4948019;28;20109;-72
2021/12/17 10:18:17;;;;;;;0.60;0.20;;;;;;;8.54;53.54;103999.66;4948215;28;20519;-72
2021/12/17 10:21:00;;;;;;;1.40;0.32;;;;;;;8.51;53.48;104006.53;4965866;28;20454;-71
2021/12/17 10:23:28;;;;;;;2.53;0.13;;;;;;;8.65;53.46;104012.91;4964644;28;20062;-71
2021/12/17 10:25:53;;;;;;;0.55;0.03;;;;;;;8.53;53.75;104010.94;4967574;28;20065;-72
2021/12/17 10:28:19;;;;;;;2.10;0.28;;;;;;;8.53;53.18;104010.94;4964304;28;20070;-72
2021/12/17 10:30:48;;;;;;;1.40;0.20;;;;;;;8.73;53.08;104003.50;4963475;28;20039;-71
2021/12/17 10:33:18;;;;;;;0.30;0.10;;;;;;;8.38;53.15;104010.63;4964056;28;20101;-71
2021/12/17 10:35:47;;;;;;;0.40;0.10;;;;;;;8.63;52.13;104011.09;4963971;28;20034;-71
2021/12/17 10:38:16;;;;;;;0.50;0.10;;;;;;;8.65;52.70;104012.91;4958536;28;20052;-71
2021/12/17 10:40:48;;;;;;;0.20;0.00;;;;;;;8.81;52.10;104010.56;4952237;28;20035;-71
2021/12/17 10:43:24;;;;;;;0.28;0.10;;;;;;;8.83;51.55;104004.56;4963055;28;20050;-71
2021/12/17 10:46:00;;;;;;;2.10;0.10;;;;;;;8.64;51.74;104005.91;4965122;28;20038;-71
2021/12/17 10:48:50;;;;;;;0.45;0.10;;;;;;;8.76;51.93;103992.25;4961093;28;20043;-72
2021/12/17 10:54:11;;;;;;;0.45;0.20;;;;;;;8.52;52.31;103993.53;4964675;28;20057;-72
2021/12/17 10:56:47;;;;;;;1.45;0.10;;;;;;;8.64;52.00;104002.44;4965092;28;20026;-71
2021/12/17 10:59:24;;;;;;;1.17;0.20;;;;;;;8.89;51.70;103993.34;4963087;28;20046;-71
2021/12/17 11:02:05;;;;;;;0.38;0.15;;;;;;;8.84;51.97;104001.09;4964348;28;20063;-72
2021/12/17 11:04:34;;;;;;;0.87;0.20;;;;;;;9.11;51.17;104002.41;4963679;28;20096;-71
2021/12/17 11:07:05;;;;;;;0.10;0.10;;;;;;;9.24;51.39;104001.75;4967244;28;20109;-71
2021/12/17 11:09:41;;;;;;;1.17;0.30;;;;;;;9.35;50.36;104000.16;4964332;28;20043;-71
2021/12/17 11:12:29;;;;;;;0.75;0.10;;;;;;;9.22;51.02;104000.84;4963969;28;20042;-71
2021/12/17 11:15:13;;;;;;;0.43;0.10;;;;;;;9.27;50.45;103993.94;4964562;28;20249;-71
2021/12/17 11:17:42;;;;;;;0.85;0.20;;;;;;;9.01;50.93;103997.88;4948838;28;20127;-72
2021/12/17 11:20:10;;;;;;;0.50;0.13;;;;;;;9.25;50.84;103998.25;4975083;28;20037;-71
2021/12/17 11:22:38;;;;;;;1.08;0.10;;;;;;;9.17;51.33;103994.69;4963429;28;20046;-71
2021/12/17 11:25:04;;;;;;;0.47;0.20;;;;;;;9.22;50.62;104002.56;4965374;28;20400;-71
2021/12/17 11:27:32;;;;;;;0.50;0.20;;;;;;;9.17;50.93;103995.53;4961904;28;20070;-71
2021/12/17 11:29:58;;;;;;;0.10;0.00;;;;;;;9.06;51.48;103997.13;4960578;28;20121;-71
2021/12/17 11:32:24;;;;;;;1.08;0.10;;;;;;;9.07;51.25;103997.97;4962611;28;20090;-71
2021/12/17 11:34:49;;;;;;;0.85;0.15;;;;;;;9.15;51.09;103993.78;4965486;28;20035;-71
2021/12/17 11:37:16;;;;;;;1.65;0.10;;;;;;;9.17;51.36;103989.47;4965425;28;20050;-71
2021/12/17 11:39:54;;;;;;;1.83;0.25;;;;;;;9.22;50.76;103989.53;4964051;28;20069;-71
2021/12/17 11:42:41;;;;;;;0.77;0.20;;;;;;;9.24;51.08;103991.31;4963577;28;20070;-71
2021/12/17 11:45:26;;;;;;;0.60;0.15;;;;;;;9.22;51.08;103989.53;4963823;28;20031;-72
2021/12/17 11:47:54;;;;;;;1.02;0.20;;;;;;;9.27;51.47;104001.78;4945425;28;20075;-72
2021/12/17 11:50:20;;;;;;;1.55;0.30;;;;;;;9.22;51.40;103997.34;4966035;28;20078;-72
2021/12/17 11:52:48;;;;;;;0.95;0.20;;;;;;;9.26;51.31;103994.81;4965996;28;20128;-72
2021/12/17 11:55:47;;;;;;;0.80;0.10;;;;;;;9.33;51.28;104001.88;4961679;28;20070;-72
2021/12/17 11:59:02;;;;;;;2.00;0.35;;;;;;;9.40;51.05;104001.13;4932484;28;20407;-71
2021/12/17 12:01:49;;;;;;;1.48;0.20;;;;;;;9.42;50.83;104000.28;4951202;28;20251;-71
2021/12/17 12:04:39;;;;;;;1.23;0.20;;;;;;;9.49;51.26;103991.66;4968803;28;20488;-72
2021/12/17 12:07:12;;;;;;;0.85;0.20;;;;;;;9.53;50.97;103990.84;4946703;28;20068;-72
2021/12/17 12:09:58;;;;;;;0.80;0.20;;;;;;;9.58;51.24;103992.66;4964396;28;20720;-71
2021/12/17 12:12:34;;;;;;;2.90;0.30;;;;;;;9.62;51.37;103993.59;4963895;28;20043;-71
2021/12/17 12:15:24;;;;;;;1.17;0.65;;;;;;;9.58;51.34;103990.06;4965317;28;20038;-71
2021/12/17 12:18:15;;;;;;;0.73;0.30;;;;;;;9.47;51.45;103998.59;4966838;28;20124;-72
2021/12/17 12:20:50;;;;;;;1.73;0.43;;;;;;;9.56;50.84;103998.72;4961153;28;20078;-71
2021/12/17 12:23:16;;;;;;;4.57;2.38;;;;;;;9.43;51.36;103997.66;4963189;28;20046;-72
2021/12/17 12:25:42;;;;;;;2.08;1.25;;;;;;;9.38;51.67;103987.16;4969579;28;20041;-72
2021/12/17 12:28:07;;;;;;;2.58;0.38;;;;;;;9.35;51.51;103984.50;4966862;28;20941;-72
2021/12/17 12:30:36;;;;;;;4.60;1.05;;;;;;;9.42;51.68;103984.59;4984769;28;20039;-72
2021/12/17 12:33:10;;;;;;;0.85;0.30;;;;;;;9.25;52.06;103990.44;4967140;28;20030;-71
2021/12/17 12:35:36;;;;;;;1.65;0.35;;;;;;;9.42;52.17;103984.59;4969067;28;20033;-72
2021/12/17 12:38:22;;;;;;;4.75;0.40;;;;;;;9.48;51.71;103989.94;4965763;28;20038;-72
2021/12/17 12:40:52;;;;;;;3.00;0.60;;;;;;;9.39;51.79;103990.66;4946708;28;20046;-71
2021/12/17 12:43:26;;;;;;;1.25;0.45;;;;;;;9.46;51.83;103996.84;4961227;28;20043;-71
2021/12/17 12:45:51;;;;;;;2.55;0.82;;;;;;;9.44;51.68;103988.13;4964871;28;20439;-72
2021/12/17 12:48:38;;;;;;;2.28;0.60;;;;;;;9.31;52.33;103993.16;4961459;28;20157;-71
2021/12/17 12:51:21;;;;;;;2.03;0.70;;;;;;;9.36;52.19;103996.69;4960258;28;20097;-71
2021/12/17 12:54:02;;;;;;;1.90;0.70;;;;;;;9.36;52.07;103986.25;4962026;28;20043;-71
2021/12/17 12:56:28;;;;;;;2.85;0.57;;;;;;;9.30;52.16;103982.69;4963068;28;20939;-71
2021/12/17 12:58:54;;;;;;;2.10;0.75;;;;;;;9.24;52.51;103980.00;4963478;28;20046;-71
2021/12/17 13:01:21;;;;;;;1.63;0.85;;;;;;;9.14;52.86;103984.16;4966522;28;20027;-71
2021/12/17 13:03:48;;;;;;;2.38;0.60;;;;;;;8.88;53.54;103982.03;4964470;28;20794;-71
2021/12/17 13:06:17;;;;;;;2.70;0.93;;;;;;;8.67;54.33;103985.13;4946613;28;20027;-71
2021/12/17 13:08:51;;;;;;;2.22;0.70;;;;;;;9.00;53.66;103985.69;4959200;28;20236;-72
2021/12/17 13:11:18;;;;;;;4.00;1.00;;;;;;;8.69;53.94;103974.72;4964136;28;20076;-71
2021/12/17 13:13:50;;;;;;;2.45;0.88;;;;;;;8.81;54.12;103974.97;4964611;28;20073;-71
2021/12/17 13:16:22;;;;;;;1.85;1.23;;;;;;;8.92;53.70;103973.41;4966427;28;20656;-71
2021/12/17 13:22:00;;;;;;;4.85;1.90;;;;;;;9.04;53.38;103977.06;4967872;28;20550;-71
2021/12/17 13:24:25;;;;;;;6.38;2.33;;;;;;;9.07;53.78;103982.31;4965951;28;20050;-71
2021/12/17 13:26:53;;;;;;;5.72;2.03;;;;;;;9.11;53.46;103978.91;4979696;28;20046;-73
2021/12/17 13:29:23;;;;;;;2.83;1.30;;;;;;;8.98;53.72;103994.38;4965922;28;20066;-71
2021/12/17 13:31:58;;;;;;;3.10;1.35;;;;;;;9.06;53.78;103980.59;4945310;28;20058;-70
2021/12/17 13:34:30;;;;;;;5.97;1.90;;;;;;;8.95;53.87;103983.00;4967399;28;20034;-73
2021/12/17 13:37:16;;;;;;;3.88;1.85;;;;;;;9.13;53.01;103974.59;4970055;28;20409;-74
2021/12/17 13:39:50;;;;;;;7.90;2.67;;;;;;;9.03;53.55;103977.91;4965678;28;20030;-73
2021/12/17 13:42:27;;;;;;;5.72;2.30;;;;;;;8.60;54.74;103974.53;4992991;28;20069;-73
2021/12/17 13:44:55;;;;;;;6.82;2.50;;;;;;;8.74;54.29;103976.59;4957749;28;20042;-73
2021/12/17 13:47:36;;;;;;;4.95;2.97;;;;;;;8.63;54.21;103975.50;4980199;28;20078;-73
2021/12/17 13:50:19;;;;;;;6.53;3.00;;;;;;;8.71;53.84;103973.03;4964599;28;20038;-73
2021/12/17 13:53:00;;;;;;;11.63;4.32;;;;;;;8.72;53.75;103972.22;4963772;28;20042;-73
2021/12/17 13:55:37;;;;;;;16.08;5.75;;;;;;;8.67;53.93;103971.19;4964085;28;20093;-73
2021/12/17 13:58:09;;;;;;;20.67;9.85;;;;;;;8.80;53.97;103972.31;4964291;28;20492;-73
2021/12/17 14:00:39;;;;;;;27.92;10.63;;;;;;;8.67;53.77;103973.78;4964157;28;20038;-74
2021/12/17 14:03:08;;;;;;;16.95;8.98;;;;;;;8.63;53.77;103970.28;4964634;28;20559;-73
2021/12/17 14:05:43;;;;;;;21.15;11.07;;;;;;;8.65;54.01;103970.28;4978197;28;20042;-74
2021/12/17 14:08:11;;;;;;;16.33;8.05;;;;;;;8.78;53.52;103972.28;4965703;28;20118;-72
2021/12/17 14:10:38;;;;;;;8.90;4.50;;;;;;;8.83;53.33;103968.06;4966706;28;20620;-76
2021/12/17 14:13:13;;;;;;;5.57;3.30;;;;;;;8.70;53.55;103972.13;4969603;28;20049;-77
2021/12/17 14:15:41;;;;;;;8.95;3.55;;;;;;;8.45;53.91;103973.44;4962533;28;20031;-77
2021/12/17 14:18:08;;;;;;;7.45;2.92;;;;;;;8.34;54.12;103973.22;4964801;28;20161;-76
2021/12/17 14:20:44;;;;;;;7.55;3.53;;;;;;;8.43;53.68;103969.91;4966979;28;20402;-73